createdAt,value
2018-07-19T00:05:02.798Z,18.7
2018-07-19T00:10:02.335Z,18.6
2018-07-19T00:20:02.389Z,18.5
2018-07-19T00:25:02.795Z,18.5
2018-07-19T00:30:02.723Z,18.5
2018-07-19T00:35:03.197Z,18.2
2018-07-19T00:40:02.733Z,18.2
2018-07-19T00:45:02.611Z,18.2
2018-07-19T00:50:03.023Z,18.2
2018-07-19T00:55:02.469Z,18.2
2018-07-19T01:00:02.349Z,18.1
2018-07-19T01:05:02.842Z,18.1
2018-07-19T01:10:02.449Z,17.8
2018-07-19T01:15:03.070Z,17.7
2018-07-19T01:20:02.804Z,17.5
2018-07-19T01:25:02.556Z,17.5
2018-07-19T01:30:03.019Z,17.5
2018-07-19T01:35:02.559Z,17.3
2018-07-19T01:40:03.100Z,17.3
2018-07-19T01:45:02.649Z,17.1
2018-07-19T01:50:02.768Z,17.2
2018-07-19T01:55:02.227Z,17.2
2018-07-19T02:00:02.776Z,17.0
2018-07-19T02:05:03.089Z,17.0
2018-07-19T02:10:02.654Z,17.0
2018-07-19T02:15:02.679Z,17.0
2018-07-19T02:20:03.195Z,16.7
2018-07-19T02:25:03.294Z,16.7
2018-07-19T02:30:02.817Z,16.7
2018-07-19T02:35:02.392Z,16.7
2018-07-19T02:40:02.408Z,16.7
2018-07-19T02:45:03.008Z,17.0
2018-07-19T02:50:02.315Z,17.1
2018-07-19T02:55:02.864Z,17.1
2018-07-19T03:00:03.174Z,17.1
2018-07-19T03:05:02.613Z,17.1
2018-07-19T03:10:02.521Z,17.2
2018-07-19T03:15:03.119Z,17.1
2018-07-19T03:20:03.046Z,17.2
2018-07-19T03:25:02.552Z,17.1
2018-07-19T03:30:03.008Z,17.2
2018-07-19T03:35:02.763Z,17.3
2018-07-19T03:40:02.442Z,17.3
2018-07-19T03:45:03.088Z,17.3
2018-07-19T03:50:02.537Z,17.2
2018-07-19T03:55:02.456Z,17.3
2018-07-19T04:00:03.012Z,17.3
2018-07-19T04:05:02.515Z,17.3
2018-07-19T04:10:02.353Z,17.5
2018-07-19T04:15:02.750Z,17.5
2018-07-19T04:20:02.296Z,17.3
2018-07-19T04:25:02.781Z,17.2
2018-07-19T04:30:02.457Z,17.2
2018-07-19T04:35:02.924Z,17.3
2018-07-19T04:40:02.518Z,17.7
2018-07-19T04:45:02.890Z,17.7
2018-07-19T04:50:02.376Z,17.7
2018-07-19T04:55:02.847Z,17.7
2018-07-19T05:00:02.355Z,17.7
2018-07-19T05:05:02.374Z,17.7
2018-07-19T05:10:02.925Z,17.7
2018-07-19T05:15:02.461Z,17.8
2018-07-19T05:20:02.935Z,18.1
2018-07-19T05:25:02.423Z,18.5
2018-07-19T05:30:03.004Z,18.5
2018-07-19T05:35:02.509Z,18.7
2018-07-19T05:40:02.486Z,19.0
2018-07-19T05:45:03.076Z,19.1
2018-07-19T05:50:02.545Z,19.2
2018-07-19T05:55:02.575Z,19.5
2018-07-19T06:00:03.055Z,19.2
2018-07-19T06:05:02.762Z,19.7
2018-07-19T06:10:02.336Z,19.5
2018-07-19T06:15:02.797Z,20.0
2018-07-19T06:20:02.424Z,20.0
2018-07-19T06:25:02.897Z,20.1
2018-07-19T06:30:02.507Z,20.7
2018-07-19T06:35:03.185Z,20.7
2018-07-19T06:40:02.912Z,20.2
2018-07-19T06:45:02.458Z,21.0
2018-07-19T06:50:03.030Z,20.8
2018-07-19T06:55:02.508Z,20.7
2018-07-19T07:00:03.366Z,21.2
2018-07-19T07:05:03.264Z,21.7
2018-07-19T07:10:02.910Z,21.6
2018-07-19T07:15:02.836Z,22.1
2018-07-19T07:20:03.230Z,22.1
2018-07-19T07:25:02.660Z,22.6
2018-07-19T07:30:03.084Z,22.1
2018-07-19T07:35:02.645Z,22.7
2018-07-19T07:40:02.595Z,22.5
2018-07-19T07:45:03.160Z,22.6
2018-07-19T07:50:02.639Z,22.6
2018-07-19T07:55:02.712Z,23.7
2018-07-19T08:00:03.120Z,24.0
2018-07-19T08:05:02.657Z,23.7
2018-07-19T08:10:03.209Z,23.7
2018-07-19T08:15:03.047Z,24.2
2018-07-19T08:20:03.159Z,25.1
2018-07-19T08:25:02.682Z,25.6
2018-07-19T08:30:02.699Z,25.1
2018-07-19T08:35:02.281Z,26.0
2018-07-19T08:40:03.000Z,26.5
2018-07-19T08:45:02.549Z,26.5
2018-07-19T08:50:03.085Z,26.2
2018-07-19T08:55:02.803Z,25.2
2018-07-19T09:00:02.412Z,25.8
2018-07-19T09:05:02.970Z,26.7
2018-07-19T09:10:02.555Z,26.6
2018-07-19T09:15:03.054Z,28.7
2018-07-19T09:20:02.656Z,27.7
2018-07-19T09:25:02.543Z,27.5
2018-07-19T09:30:02.977Z,27.8
2018-07-19T09:35:02.697Z,28.2
2018-07-19T09:40:02.323Z,30.1
2018-07-19T09:45:02.817Z,30.1
2018-07-19T09:50:02.470Z,30.2
2018-07-19T09:55:02.981Z,28.8
2018-07-19T10:00:02.573Z,27.7
2018-07-19T10:05:03.210Z,28.8
2018-07-19T10:10:03.161Z,27.7
2018-07-19T10:15:02.317Z,28.6
2018-07-19T10:20:02.937Z,29.5
2018-07-19T10:25:02.429Z,30.2
2018-07-19T10:30:02.960Z,31.1
2018-07-19T10:35:03.233Z,29.7
2018-07-19T10:40:02.775Z,30.0
2018-07-19T10:45:02.320Z,28.5
2018-07-19T10:50:02.976Z,29.0
2018-07-19T10:55:02.381Z,29.7
2018-07-19T11:00:02.806Z,29.7
2018-07-19T11:05:03.244Z,28.7
2018-07-19T11:10:02.761Z,29.2
2018-07-19T11:15:02.489Z,30.2
2018-07-19T11:20:03.057Z,29.7
2018-07-19T11:25:02.413Z,30.0
2018-07-19T11:30:02.879Z,31.0
2018-07-19T11:35:02.419Z,31.6
2018-07-19T11:40:02.924Z,29.7
2018-07-19T11:45:02.356Z,29.6
2018-07-19T11:50:02.869Z,30.2
2018-07-19T11:55:02.248Z,30.2
2018-07-19T12:00:02.675Z,29.7
2018-07-19T12:05:03.176Z,30.8
2018-07-19T12:10:02.711Z,30.1
2018-07-19T12:15:03.189Z,30.3
2018-07-19T12:20:02.604Z,29.0
2018-07-19T12:25:02.960Z,30.2
2018-07-19T12:30:02.402Z,31.1
2018-07-19T12:35:02.949Z,31.2
2018-07-19T12:40:02.409Z,31.2
2018-07-19T12:45:02.863Z,30.5
2018-07-19T12:50:02.395Z,32.2
2018-07-19T12:55:02.909Z,30.0
2018-07-19T13:00:02.321Z,31.0
2018-07-19T13:05:02.839Z,32.0
2018-07-19T13:10:02.331Z,31.6
2018-07-19T13:15:02.727Z,30.3
2018-07-19T13:20:02.323Z,30.0
2018-07-19T13:25:02.909Z,29.2
2018-07-19T13:30:02.382Z,29.0
2018-07-19T13:35:02.903Z,30.0
2018-07-19T13:40:02.468Z,29.6
2018-07-19T13:45:03.017Z,30.1
2018-07-19T13:50:02.333Z,29.6
2018-07-19T13:55:02.674Z,29.7
2018-07-19T14:00:02.796Z,28.8
2018-07-19T14:05:02.420Z,28.8
2018-07-19T14:10:02.874Z,29.1
2018-07-19T14:15:03.241Z,28.8
2018-07-19T14:20:02.730Z,30.2
2018-07-19T14:25:03.217Z,29.7
2018-07-19T14:30:02.571Z,29.2
2018-07-19T14:35:03.039Z,29.2
2018-07-19T14:40:02.444Z,28.8
2018-07-19T14:45:03.054Z,29.2
2018-07-19T14:50:02.488Z,29.0
2018-07-19T14:55:02.907Z,29.2
2018-07-19T15:00:02.589Z,30.0
2018-07-19T15:05:03.130Z,30.8
2018-07-19T15:10:02.632Z,31.1
2018-07-19T15:15:03.031Z,31.2
2018-07-19T15:20:02.527Z,32.9
2018-07-19T15:25:02.912Z,30.8
2018-07-19T15:30:02.237Z,30.2
2018-07-19T15:35:02.704Z,30.7
2018-07-19T15:40:03.128Z,30.6
2018-07-19T15:45:02.586Z,32.0
2018-07-19T15:50:02.512Z,34.0
2018-07-19T15:55:02.819Z,34.2
2018-07-19T16:00:02.264Z,33.4
2018-07-19T16:05:02.685Z,32.5
2018-07-19T16:10:03.160Z,30.6
2018-07-19T16:15:02.524Z,29.7
2018-07-19T16:20:02.927Z,29.0
2018-07-19T16:25:02.303Z,29.7
2018-07-19T16:30:02.718Z,29.6
2018-07-19T16:35:03.155Z,29.2
2018-07-19T16:40:02.891Z,29.5
2018-07-19T16:45:02.348Z,29.2
2018-07-19T16:50:02.812Z,29.1
2018-07-19T16:55:02.254Z,28.8
2018-07-19T17:00:02.717Z,29.2
2018-07-19T17:05:02.291Z,28.8
2018-07-19T17:10:02.838Z,30.1
2018-07-19T17:15:03.214Z,30.1
2018-07-19T17:20:02.865Z,30.5
2018-07-19T17:25:03.244Z,28.6
2018-07-19T17:30:02.572Z,28.5
2018-07-19T17:35:03.040Z,27.8
2018-07-19T17:40:02.518Z,27.3
2018-07-19T17:45:03.022Z,27.1
2018-07-19T17:50:02.452Z,26.7
2018-07-19T17:55:03.186Z,27.2
2018-07-19T18:00:02.605Z,27.2
2018-07-19T18:05:02.342Z,27.5
2018-07-19T18:10:02.865Z,27.5
2018-07-19T18:15:02.321Z,27.2
2018-07-19T18:20:02.769Z,26.8
2018-07-19T18:25:03.134Z,26.7
2018-07-19T18:30:02.563Z,26.5
2018-07-19T18:35:03.068Z,25.8
2018-07-19T18:40:02.484Z,25.5
2018-07-19T18:45:02.880Z,25.6
2018-07-19T18:50:03.268Z,25.0
2018-07-19T18:55:02.775Z,24.6
2018-07-19T19:00:03.195Z,24.3
2018-07-19T19:05:02.837Z,24.2
2018-07-19T19:10:02.426Z,24.0
2018-07-19T19:15:02.887Z,23.7
2018-07-19T19:20:02.323Z,23.3
2018-07-19T19:25:02.660Z,23.2
2018-07-19T19:30:03.048Z,23.0
2018-07-19T19:35:02.445Z,22.7
2018-07-19T19:40:02.927Z,22.5
2018-07-19T19:45:02.557Z,22.3
2018-07-19T19:50:02.540Z,22.2
2018-07-19T19:55:03.047Z,22.1
2018-07-19T20:00:02.774Z,21.8
2018-07-19T20:05:02.294Z,21.8
2018-07-19T20:10:02.731Z,21.8
2018-07-19T20:15:03.170Z,21.6
2018-07-19T20:20:02.533Z,21.5
2018-07-19T20:25:02.913Z,21.2
2018-07-19T20:30:03.100Z,21.2
2018-07-19T20:35:02.456Z,21.0
2018-07-19T20:40:03.054Z,20.8
2018-07-19T20:45:02.698Z,21.0
2018-07-19T20:50:03.134Z,20.7
2018-07-19T20:55:02.700Z,20.8
2018-07-19T21:00:02.920Z,20.7
2018-07-19T21:05:02.908Z,20.7
2018-07-19T21:10:02.430Z,20.6
2018-07-19T21:15:03.240Z,20.2
2018-07-19T21:20:02.681Z,20.2
2018-07-19T21:25:03.160Z,20.2
2018-07-19T21:30:02.857Z,20.1
2018-07-19T21:35:03.264Z,20.1
2018-07-19T21:40:02.620Z,20.0
2018-07-19T21:45:03.185Z,20.0
2018-07-19T21:50:02.568Z,20.0
2018-07-19T21:55:02.899Z,19.7
2018-07-19T22:00:02.389Z,19.7
2018-07-19T22:05:03.226Z,19.7
2018-07-19T22:10:02.760Z,19.7
2018-07-19T22:15:03.348Z,19.5
2018-07-19T22:20:02.790Z,19.5
2018-07-19T22:25:02.323Z,19.3
2018-07-19T22:30:02.705Z,19.2
2018-07-19T22:35:03.244Z,19.2
2018-07-19T22:40:02.721Z,19.1
2018-07-19T22:45:03.086Z,19.1
2018-07-19T22:50:02.499Z,19.0
2018-07-19T22:55:02.905Z,19.0
2018-07-19T23:00:02.273Z,18.8
2018-07-19T23:05:02.952Z,18.8
2018-07-19T23:10:02.461Z,18.8
2018-07-19T23:15:02.789Z,18.8
2018-07-19T23:25:03.064Z,18.6
2018-07-19T23:30:02.421Z,18.5
2018-07-19T23:35:02.811Z,18.5
2018-07-19T23:40:02.249Z,18.5
2018-07-19T23:45:02.610Z,18.5
2018-07-19T23:50:02.992Z,18.2
2018-07-19T23:55:02.339Z,18.2
